sensor_id;sensor_type;location;lat;lon;timestamp;pressure;altitude;pressure_sealevel;temperature;humidity
967;BME280;56108;48.730;9.304;2023-05-09T00:01:51;97767.56;;;12.73;100.00
967;BME280;56108;48.730;9.304;2023-05-09T00:03:59;97765.41;;;12.78;100.00
967;BME280;56108;48.730;9.304;2023-05-09T00:06:10;97771.63;;;12.79;100.00
967;BME280;56108;48.730;9.304;2023-05-09T00:08:19;97767.56;;;12.73;100.00
967;BME280;56108;48.730;9.304;2023-05-09T00:10:27;97760.16;;;12.66;100.00
967;BME280;56108;48.730;9.304;2023-05-09T00:12:35;97753.22;;;12.63;100.00
967;BME280;56108;48.730;9.304;2023-05-09T00:14:43;97747.75;;;12.53;100.00
967;BME280;56108;48.730;9.304;2023-05-09T00:16:55;97746.25;;;12.49;100.00
967;BME280;56108;48.730;9.304;2023-05-09T00:19:03;97746.47;;;12.46;100.00
967;BME280;56108;48.730;9.304;2023-05-09T00:21:14;97737.00;;;12.42;100.00
967;BME280;56108;48.730;9.304;2023-05-09T00:23:22;97730.28;;;12.37;100.00
967;BME280;56108;48.730;9.304;2023-05-09T00:25:30;97725.19;;;12.34;100.00
967;BME280;56108;48.730;9.304;2023-05-09T00:27:39;97716.56;;;12.30;100.00
967;BME280;56108;48.730;9.304;2023-05-09T00:29:47;97718.03;;;12.34;100.00
967;BME280;56108;48.730;9.304;2023-05-09T00:31:55;97712.50;;;12.37;100.00
967;BME280;56108;48.730;9.304;2023-05-09T00:34:03;97701.81;;;12.37;100.00
967;BME280;56108;48.730;9.304;2023-05-09T00:36:15;97705.44;;;12.36;100.00
967;BME280;56108;48.730;9.304;2023-05-09T00:38:25;97703.59;;;12.37;100.00
967;BME280;56108;48.730;9.304;2023-05-09T00:40:33;97698.53;;;12.34;100.00
967;BME280;56108;48.730;9.304;2023-05-09T00:42:41;97695.00;;;12.33;100.00
967;BME280;56108;48.730;9.304;2023-05-09T00:44:51;97690.63;;;12.32;100.00
967;BME280;56108;48.730;9.304;2023-05-09T00:46:59;97694.19;;;12.44;100.00
967;BME280;56108;48.730;9.304;2023-05-09T00:49:07;97696.53;;;12.24;100.00
967;BME280;56108;48.730;9.304;2023-05-09T00:51:19;97686.44;;;12.17;100.00
967;BME280;56108;48.730;9.304;2023-05-09T00:53:28;97687.03;;;12.20;100.00
967;BME280;56108;48.730;9.304;2023-05-09T00:55:36;97676.28;;;12.22;100.00
967;BME280;56108;48.730;9.304;2023-05-09T00:57:45;97673.69;;;12.20;100.00
967;BME280;56108;48.730;9.304;2023-05-09T00:59:53;97665.44;;;12.12;100.00
967;BME280;56108;48.730;9.304;2023-05-09T01:02:02;97662.88;;;12.11;100.00
967;BME280;56108;48.730;9.304;2023-05-09T01:04:13;97662.47;;;12.04;100.00
967;BME280;56108;48.730;9.304;2023-05-09T01:06:31;97656.41;;;12.02;100.00
967;BME280;56108;48.730;9.304;2023-05-09T01:08:49;97649.66;;;12.09;100.00
967;BME280;56108;48.730;9.304;2023-05-09T01:11:09;97657.78;;;12.08;100.00
967;BME280;56108;48.730;9.304;2023-05-09T01:13:24;97652.81;;;12.14;100.00
967;BME280;56108;48.730;9.304;2023-05-09T01:15:38;97655.28;;;12.17;100.00
967;BME280;56108;48.730;9.304;2023-05-09T01:17:52;97655.50;;;12.14;100.00
967;BME280;56108;48.730;9.304;2023-05-09T01:20:07;97659.00;;;12.15;100.00
967;BME280;56108;48.730;9.304;2023-05-09T01:22:24;97663.28;;;12.17;100.00
967;BME280;56108;48.730;9.304;2023-05-09T01:24:51;97662.66;;;12.14;100.00
967;BME280;56108;48.730;9.304;2023-05-09T01:27:20;97671.16;;;12.19;100.00
967;BME280;56108;48.730;9.304;2023-05-09T01:29:41;97672.13;;;12.18;100.00
967;BME280;56108;48.730;9.304;2023-05-09T01:31:54;97663.16;;;12.19;100.00
967;BME280;56108;48.730;9.304;2023-05-09T01:34:04;97672.63;;;12.23;100.00
967;BME280;56108;48.730;9.304;2023-05-09T01:36:15;97678.94;;;12.22;100.00
967;BME280;56108;48.730;9.304;2023-05-09T01:38:24;97673.81;;;12.19;100.00
967;BME280;56108;48.730;9.304;2023-05-09T01:40:33;97674.69;;;12.19;100.00
967;BME280;56108;48.730;9.304;2023-05-09T01:42:43;97669.34;;;12.19;100.00
967;BME280;56108;48.730;9.304;2023-05-09T01:44:57;97668.38;;;12.20;100.00
967;BME280;56108;48.730;9.304;2023-05-09T01:47:06;97665.31;;;12.14;100.00
967;BME280;56108;48.730;9.304;2023-05-09T01:49:16;97664.25;;;12.16;100.00
967;BME280;56108;48.730;9.304;2023-05-09T01:51:26;97656.16;;;12.05;100.00
967;BME280;56108;48.730;9.304;2023-05-09T01:53:38;97660.44;;;12.08;100.00
967;BME280;56108;48.730;9.304;2023-05-09T01:55:47;97652.16;;;11.99;100.00
967;BME280;56108;48.730;9.304;2023-05-09T01:57:57;97647.16;;;11.95;100.00
967;BME280;56108;48.730;9.304;2023-05-09T02:00:13;97641.81;;;11.95;100.00
967;BME280;56108;48.730;9.304;2023-05-09T02:02:26;97632.50;;;11.76;100.00
967;BME280;56108;48.730;9.304;2023-05-09T02:04:34;97626.97;;;11.67;100.00
967;BME280;56108;48.730;9.304;2023-05-09T02:06:46;97626.47;;;11.62;100.00
967;BME280;56108;48.730;9.304;2023-05-09T02:08:56;97613.34;;;11.59;100.00
967;BME280;56108;48.730;9.304;2023-05-09T02:11:04;97606.56;;;11.55;100.00
967;BME280;56108;48.730;9.304;2023-05-09T02:13:14;97605.53;;;11.44;100.00
967;BME280;56108;48.730;9.304;2023-05-09T02:15:25;97592.09;;;11.46;100.00
967;BME280;56108;48.730;9.304;2023-05-09T02:17:34;97597.63;;;11.43;100.00
967;BME280;56108;48.730;9.304;2023-05-09T02:19:42;97604.34;;;11.48;100.00
967;BME280;56108;48.730;9.304;2023-05-09T02:21:51;97595.94;;;11.42;100.00
967;BME280;56108;48.730;9.304;2023-05-09T02:24:02;97601.25;;;11.42;100.00
967;BME280;56108;48.730;9.304;2023-05-09T02:26:12;97607.22;;;11.45;100.00
967;BME280;56108;48.730;9.304;2023-05-09T02:28:22;97607.34;;;11.44;100.00
967;BME280;56108;48.730;9.304;2023-05-09T02:30:43;97623.09;;;11.47;100.00
967;BME280;56108;48.730;9.304;2023-05-09T02:32:55;97621.00;;;11.39;100.00
967;BME280;56108;48.730;9.304;2023-05-09T02:35:08;97616.53;;;11.40;100.00
967;BME280;56108;48.730;9.304;2023-05-09T02:37:17;97609.50;;;11.39;100.00
967;BME280;56108;48.730;9.304;2023-05-09T02:39:25;97601.50;;;11.39;100.00
967;BME280;56108;48.730;9.304;2023-05-09T02:41:33;97601.19;;;11.43;100.00
967;BME280;56108;48.730;9.304;2023-05-09T02:43:41;97590.66;;;11.53;100.00
967;BME280;56108;48.730;9.304;2023-05-09T02:45:52;97598.25;;;11.59;100.00
967;BME280;56108;48.730;9.304;2023-05-09T02:48:00;97603.56;;;11.59;100.00
967;BME280;56108;48.730;9.304;2023-05-09T02:50:12;97602.13;;;11.66;100.00
967;BME280;56108;48.730;9.304;2023-05-09T02:52:20;97598.28;;;11.70;100.00
967;BME280;56108;48.730;9.304;2023-05-09T02:54:29;97600.38;;;11.78;100.00
967;BME280;56108;48.730;9.304;2023-05-09T02:56:38;97604.84;;;11.77;100.00
967;BME280;56108;48.730;9.304;2023-05-09T02:58:46;97608.16;;;11.81;100.00
967;BME280;56108;48.730;9.304;2023-05-09T03:00:58;97603.38;;;11.86;100.00
967;BME280;56108;48.730;9.304;2023-05-09T03:03:06;97613.50;;;11.81;100.00
967;BME280;56108;48.730;9.304;2023-05-09T03:05:16;97611.16;;;11.76;100.00
967;BME280;56108;48.730;9.304;2023-05-09T03:07:25;97602.59;;;11.60;100.00
967;BME280;56108;48.730;9.304;2023-05-09T03:09:33;97597.16;;;11.62;100.00
967;BME280;56108;48.730;9.304;2023-05-09T03:11:44;97594.34;;;11.63;100.00
967;BME280;56108;48.730;9.304;2023-05-09T03:13:57;97589.16;;;11.62;100.00
967;BME280;56108;48.730;9.304;2023-05-09T03:16:11;97594.59;;;11.60;100.00
967;BME280;56108;48.730;9.304;2023-05-09T03:18:20;97583.47;;;11.66;100.00
967;BME280;56108;48.730;9.304;2023-05-09T03:20:29;97581.88;;;11.64;100.00
967;BME280;56108;48.730;9.304;2023-05-09T03:22:37;97579.47;;;11.61;100.00
967;BME280;56108;48.730;9.304;2023-05-09T03:24:48;97584.44;;;11.65;100.00
967;BME280;56108;48.730;9.304;2023-05-09T03:26:56;97587.22;;;11.64;100.00
967;BME280;56108;48.730;9.304;2023-05-09T03:29:05;97597.03;;;11.63;100.00
967;BME280;56108;48.730;9.304;2023-05-09T03:31:18;97590.84;;;11.63;100.00
967;BME280;56108;48.730;9.304;2023-05-09T03:33:28;97590.00;;;11.62;100.00
967;BME280;56108;48.730;9.304;2023-05-09T03:35:40;97581.78;;;11.65;100.00
967;BME280;56108;48.730;9.304;2023-05-09T03:37:48;97587.22;;;11.64;100.00
967;BME280;56108;48.730;9.304;2023-05-09T03:39:56;97582.00;;;11.62;100.00
967;BME280;56108;48.730;9.304;2023-05-09T03:42:09;97583.94;;;11.60;100.00
967;BME280;56108;48.730;9.304;2023-05-09T03:44:18;97582.25;;;11.59;100.00
967;BME280;56108;48.730;9.304;2023-05-09T03:46:29;97577.00;;;11.58;100.00
967;BME280;56108;48.730;9.304;2023-05-09T03:48:38;97571.34;;;11.62;100.00
967;BME280;56108;48.730;9.304;2023-05-09T03:50:46;97575.94;;;11.60;100.00
967;BME280;56108;48.730;9.304;2023-05-09T03:52:57;97574.34;;;11.58;100.00
967;BME280;56108;48.730;9.304;2023-05-09T03:55:10;97572.38;;;11.48;100.00
967;BME280;56108;48.730;9.304;2023-05-09T03:57:20;97570.03;;;11.44;100.00
967;BME280;56108;48.730;9.304;2023-05-09T03:59:32;97570.38;;;11.63;100.00
967;BME280;56108;48.730;9.304;2023-05-09T04:01:44;97576.63;;;11.51;100.00
967;BME280;56108;48.730;9.304;2023-05-09T04:03:54;97571.94;;;11.42;100.00
967;BME280;56108;48.730;9.304;2023-05-09T04:06:04;97573.78;;;11.41;100.00
967;BME280;56108;48.730;9.304;2023-05-09T04:08:16;97574.16;;;11.48;100.00
967;BME280;56108;48.730;9.304;2023-05-09T04:10:24;97569.84;;;11.58;100.00
967;BME280;56108;48.730;9.304;2023-05-09T04:12:32;97580.44;;;11.60;100.00
967;BME280;56108;48.730;9.304;2023-05-09T04:14:41;97575.69;;;11.63;100.00
967;BME280;56108;48.730;9.304;2023-05-09T04:16:55;97587.66;;;11.58;100.00
967;BME280;56108;48.730;9.304;2023-05-09T04:19:03;97589.16;;;11.62;100.00
967;BME280;56108;48.730;9.304;2023-05-09T04:21:12;97586.66;;;11.71;100.00
967;BME280;56108;48.730;9.304;2023-05-09T04:23:24;97583.94;;;11.84;100.00
967;BME280;56108;48.730;9.304;2023-05-09T04:25:35;97588.88;;;11.77;100.00
967;BME280;56108;48.730;9.304;2023-05-09T04:27:44;97598.03;;;11.73;100.00
967;BME280;56108;48.730;9.304;2023-05-09T04:29:52;97601.22;;;11.79;100.00
967;BME280;56108;48.730;9.304;2023-05-09T04:32:04;97600.16;;;11.81;100.00
967;BME280;56108;48.730;9.304;2023-05-09T04:34:12;97606.75;;;11.88;100.00
967;BME280;56108;48.730;9.304;2023-05-09T04:36:20;97614.13;;;12.09;100.00
967;BME280;56108;48.730;9.304;2023-05-09T04:38:28;97626.03;;;12.16;100.00
967;BME280;56108;48.730;9.304;2023-05-09T04:40:37;97632.78;;;12.33;100.00
967;BME280;56108;48.730;9.304;2023-05-09T04:42:45;97642.84;;;12.40;100.00
967;BME280;56108;48.730;9.304;2023-05-09T04:44:54;97647.38;;;12.51;100.00
967;BME280;56108;48.730;9.304;2023-05-09T04:47:05;97661.91;;;12.93;100.00
967;BME280;56108;48.730;9.304;2023-05-09T04:49:14;97680.78;;;13.48;100.00
967;BME280;56108;48.730;9.304;2023-05-09T04:51:22;97702.72;;;13.96;100.00
967;BME280;56108;48.730;9.304;2023-05-09T04:53:30;97706.16;;;13.76;100.00
967;BME280;56108;48.730;9.304;2023-05-09T04:55:40;97704.94;;;13.35;100.00
967;BME280;56108;48.730;9.304;2023-05-09T04:57:48;97698.63;;;13.36;100.00
967;BME280;56108;48.730;9.304;2023-05-09T04:59:56;97687.63;;;12.94;100.00
967;BME280;56108;48.730;9.304;2023-05-09T05:02:09;97688.38;;;13.07;100.00
967;BME280;56108;48.730;9.304;2023-05-09T05:04:18;97685.72;;;13.07;100.00
967;BME280;56108;48.730;9.304;2023-05-09T05:06:27;97684.25;;;13.15;100.00
967;BME280;56108;48.730;9.304;2023-05-09T05:08:36;97690.63;;;13.25;100.00
967;BME280;56108;48.730;9.304;2023-05-09T05:10:45;97695.13;;;13.47;100.00
967;BME280;56108;48.730;9.304;2023-05-09T05:12:55;97698.00;;;13.77;100.00
967;BME280;56108;48.730;9.304;2023-05-09T05:15:05;97696.19;;;13.89;100.00
967;BME280;56108;48.730;9.304;2023-05-09T05:17:17;97696.16;;;13.78;100.00
967;BME280;56108;48.730;9.304;2023-05-09T05:19:26;97697.13;;;13.88;100.00
967;BME280;56108;48.730;9.304;2023-05-09T05:21:35;97708.91;;;15.65;100.00
967;BME280;56108;48.730;9.304;2023-05-09T05:23:43;97705.13;;;17.89;100.00
967;BME280;56108;48.730;9.304;2023-05-09T05:25:52;97696.97;;;17.81;94.69
967;BME280;56108;48.730;9.304;2023-05-09T05:28:00;97710.84;;;18.67;88.86
967;BME280;56108;48.730;9.304;2023-05-09T05:30:11;97715.47;;;19.37;82.76
967;BME280;56108;48.730;9.304;2023-05-09T05:32:23;97708.28;;;19.71;78.84
967;BME280;56108;48.730;9.304;2023-05-09T05:34:31;97730.25;;;20.69;70.39
967;BME280;56108;48.730;9.304;2023-05-09T05:36:39;97713.00;;;19.69;75.47
967;BME280;56108;48.730;9.304;2023-05-09T05:38:48;97711.88;;;19.80;73.11
967;BME280;56108;48.730;9.304;2023-05-09T05:40:59;97704.06;;;19.17;79.19
967;BME280;56108;48.730;9.304;2023-05-09T05:43:07;97694.25;;;18.54;84.51
967;BME280;56108;48.730;9.304;2023-05-09T05:45:18;97695.88;;;18.02;84.03
967;BME280;56108;48.730;9.304;2023-05-09T05:47:34;97691.13;;;18.31;84.87
967;BME280;56108;48.730;9.304;2023-05-09T05:49:43;97695.91;;;18.37;84.29
967;BME280;56108;48.730;9.304;2023-05-09T05:51:51;97685.66;;;17.78;88.53
967;BME280;56108;48.730;9.304;2023-05-09T05:53:59;97674.84;;;16.16;100.00
967;BME280;56108;48.730;9.304;2023-05-09T05:56:10;97670.28;;;15.47;100.00
967;BME280;56108;48.730;9.304;2023-05-09T05:58:19;97661.09;;;15.40;100.00
967;BME280;56108;48.730;9.304;2023-05-09T06:00:34;97663.03;;;15.38;100.00
967;BME280;56108;48.730;9.304;2023-05-09T06:02:47;97667.88;;;14.72;100.00
967;BME280;56108;48.730;9.304;2023-05-09T06:05:03;97666.13;;;14.82;100.00
967;BME280;56108;48.730;9.304;2023-05-09T06:07:12;97665.13;;;15.04;100.00
967;BME280;56108;48.730;9.304;2023-05-09T06:09:22;97669.13;;;15.50;100.00
967;BME280;56108;48.730;9.304;2023-05-09T06:11:30;97667.84;;;15.75;100.00
967;BME280;56108;48.730;9.304;2023-05-09T06:13:38;97661.28;;;15.58;100.00
967;BME280;56108;48.730;9.304;2023-05-09T06:15:47;97660.25;;;14.67;100.00
967;BME280;56108;48.730;9.304;2023-05-09T06:17:58;97664.91;;;15.17;100.00
967;BME280;56108;48.730;9.304;2023-05-09T06:20:08;97669.13;;;15.50;100.00
967;BME280;56108;48.730;9.304;2023-05-09T06:22:18;97674.00;;;16.54;100.00
967;BME280;56108;48.730;9.304;2023-05-09T06:24:26;97661.56;;;16.43;100.00
967;BME280;56108;48.730;9.304;2023-05-09T06:26:40;97660.22;;;17.15;100.00
967;BME280;56108;48.730;9.304;2023-05-09T06:28:49;97666.75;;;18.33;91.77
967;BME280;56108;48.730;9.304;2023-05-09T06:30:58;97678.59;;;19.19;83.78
967;BME280;56108;48.730;9.304;2023-05-09T06:33:10;97679.44;;;19.72;75.12
967;BME280;56108;48.730;9.304;2023-05-09T06:35:19;97690.34;;;20.47;71.23
967;BME280;56108;48.730;9.304;2023-05-09T06:37:31;97697.78;;;21.51;64.77
967;BME280;56108;48.730;9.304;2023-05-09T06:39:41;97724.66;;;24.21;54.26
967;BME280;56108;48.730;9.304;2023-05-09T06:41:49;97748.56;;;26.25;48.19
967;BME280;56108;48.730;9.304;2023-05-09T06:44:07;97758.59;;;26.52;45.12
967;BME280;56108;48.730;9.304;2023-05-09T06:46:17;97747.63;;;26.46;46.06
967;BME280;56108;48.730;9.304;2023-05-09T06:48:28;97772.84;;;28.42;41.29
967;BME280;56108;48.730;9.304;2023-05-09T06:50:36;97760.94;;;27.63;41.77
967;BME280;56108;48.730;9.304;2023-05-09T06:52:44;97752.34;;;26.24;44.27
967;BME280;56108;48.730;9.304;2023-05-09T06:54:52;97733.06;;;25.13;46.35
967;BME280;56108;48.730;9.304;2023-05-09T06:57:00;97718.50;;;24.12;49.17
967;BME280;56108;48.730;9.304;2023-05-09T06:59:08;97712.06;;;24.35;49.12
967;BME280;56108;48.730;9.304;2023-05-09T07:01:17;97727.28;;;25.23;46.34
967;BME280;56108;48.730;9.304;2023-05-09T07:03:30;97734.56;;;26.41;44.86
967;BME280;56108;48.730;9.304;2023-05-09T07:05:38;97745.38;;;27.64;42.54
967;BME280;56108;48.730;9.304;2023-05-09T07:07:46;97748.28;;;27.29;41.56
967;BME280;56108;48.730;9.304;2023-05-09T07:09:54;97735.06;;;26.51;43.06
967;BME280;56108;48.730;9.304;2023-05-09T07:12:14;97733.38;;;25.25;45.56
967;BME280;56108;48.730;9.304;2023-05-09T07:14:22;97684.06;;;22.00;53.65
967;BME280;56108;48.730;9.304;2023-05-09T07:16:31;97679.91;;;22.74;54.03
967;BME280;56108;48.730;9.304;2023-05-09T07:18:44;97693.38;;;23.28;51.71
967;BME280;56108;48.730;9.304;2023-05-09T07:20:52;97672.53;;;21.98;55.47
967;BME280;56108;48.730;9.304;2023-05-09T07:23:02;97662.31;;;22.47;57.23
967;BME280;56108;48.730;9.304;2023-05-09T07:25:10;97673.69;;;23.79;51.52
967;BME280;56108;48.730;9.304;2023-05-09T07:27:18;97683.78;;;24.14;49.87
967;BME280;56108;48.730;9.304;2023-05-09T07:29:29;97692.63;;;24.74;48.70
967;BME280;56108;48.730;9.304;2023-05-09T07:31:37;97710.66;;;27.57;42.82
967;BME280;56108;48.730;9.304;2023-05-09T07:33:48;97717.38;;;27.35;41.26
967;BME280;56108;48.730;9.304;2023-05-09T07:35:57;97712.75;;;27.89;40.64
967;BME280;56108;48.730;9.304;2023-05-09T07:38:05;97703.94;;;27.40;40.61
967;BME280;56108;48.730;9.304;2023-05-09T07:40:14;97666.09;;;23.74;48.55
967;BME280;56108;48.730;9.304;2023-05-09T07:42:22;97638.34;;;22.28;53.80
967;BME280;56108;48.730;9.304;2023-05-09T07:44:30;97646.00;;;24.05;51.06
967;BME280;56108;48.730;9.304;2023-05-09T07:46:38;97663.13;;;26.24;46.59
967;BME280;56108;48.730;9.304;2023-05-09T07:48:49;97681.66;;;27.37;41.50
967;BME280;56108;48.730;9.304;2023-05-09T07:50:57;97665.09;;;25.61;43.84
967;BME280;56108;48.730;9.304;2023-05-09T07:53:05;97650.91;;;23.80;47.21
967;BME280;56108;48.730;9.304;2023-05-09T07:55:13;97635.34;;;24.03;48.85
967;BME280;56108;48.730;9.304;2023-05-09T07:57:21;97632.19;;;24.21;49.10
967;BME280;56108;48.730;9.304;2023-05-09T07:59:29;97625.31;;;23.15;49.43
967;BME280;56108;48.730;9.304;2023-05-09T08:01:38;97590.66;;;21.48;56.97
967;BME280;56108;48.730;9.304;2023-05-09T08:03:45;97601.66;;;22.17;54.42
967;BME280;56108;48.730;9.304;2023-05-09T08:05:56;97600.97;;;22.46;54.82
967;BME280;56108;48.730;9.304;2023-05-09T08:08:04;97600.84;;;22.08;55.47
967;BME280;56108;48.730;9.304;2023-05-09T08:10:12;97589.56;;;21.02;57.87
967;BME280;56108;48.730;9.304;2023-05-09T08:12:21;97577.06;;;21.09;59.99
967;BME280;56108;48.730;9.304;2023-05-09T08:14:29;97570.53;;;20.63;62.73
967;BME280;56108;48.730;9.304;2023-05-09T08:16:36;97556.22;;;19.71;66.49
967;BME280;56108;48.730;9.304;2023-05-09T08:18:47;97556.78;;;19.99;67.22
967;BME280;56108;48.730;9.304;2023-05-09T08:20:58;97564.88;;;21.05;61.33
967;BME280;56108;48.730;9.304;2023-05-09T08:23:06;97556.66;;;21.46;62.83
967;BME280;56108;48.730;9.304;2023-05-09T08:25:14;97547.69;;;20.41;64.24
967;BME280;56108;48.730;9.304;2023-05-09T08:27:24;97540.09;;;20.20;69.33
967;BME280;56108;48.730;9.304;2023-05-09T08:29:32;97532.84;;;20.12;67.14
967;BME280;56108;48.730;9.304;2023-05-09T08:31:40;97532.16;;;20.51;66.48
967;BME280;56108;48.730;9.304;2023-05-09T08:33:48;97527.06;;;20.72;65.21
967;BME280;56108;48.730;9.304;2023-05-09T08:35:59;97526.72;;;20.67;66.88
967;BME280;56108;48.730;9.304;2023-05-09T08:38:07;97526.06;;;19.92;68.62
967;BME280;56108;48.730;9.304;2023-05-09T08:40:17;97512.69;;;19.82;70.10
967;BME280;56108;48.730;9.304;2023-05-09T08:42:28;97511.22;;;20.28;66.88
967;BME280;56108;48.730;9.304;2023-05-09T08:44:37;97502.09;;;19.30;70.72
967;BME280;56108;48.730;9.304;2023-05-09T08:46:46;97490.84;;;19.43;75.29
967;BME280;56108;48.730;9.304;2023-05-09T08:48:57;97496.19;;;20.01;71.40
967;BME280;56108;48.730;9.304;2023-05-09T08:51:09;97483.94;;;19.56;71.41
967;BME280;56108;48.730;9.304;2023-05-09T08:53:17;97488.56;;;19.80;70.19
967;BME280;56108;48.730;9.304;2023-05-09T08:55:27;97486.75;;;19.30;73.94
967;BME280;56108;48.730;9.304;2023-05-09T08:57:35;97493.94;;;19.72;70.95
967;BME280;56108;48.730;9.304;2023-05-09T08:59:43;97492.28;;;20.69;67.29
967;BME280;56108;48.730;9.304;2023-05-09T09:01:52;97497.31;;;21.28;66.05
967;BME280;56108;48.730;9.304;2023-05-09T09:04:02;97492.31;;;21.08;66.27
967;BME280;56108;48.730;9.304;2023-05-09T09:06:15;97488.06;;;20.42;68.72
967;BME280;56108;48.730;9.304;2023-05-09T09:08:24;97497.34;;;21.20;65.92
967;BME280;56108;48.730;9.304;2023-05-09T09:10:33;97509.75;;;21.06;62.36
967;BME280;56108;48.730;9.304;2023-05-09T09:12:42;97503.72;;;21.35;63.96
967;BME280;56108;48.730;9.304;2023-05-09T09:14:54;97501.44;;;21.07;61.05
967;BME280;56108;48.730;9.304;2023-05-09T09:17:04;97496.47;;;21.67;63.34
967;BME280;56108;48.730;9.304;2023-05-09T09:19:16;97510.47;;;22.24;56.21
967;BME280;56108;48.730;9.304;2023-05-09T09:21:26;97493.19;;;21.40;60.39
967;BME280;56108;48.730;9.304;2023-05-09T09:23:38;97487.41;;;22.43;60.93
967;BME280;56108;48.730;9.304;2023-05-09T09:25:47;97505.13;;;23.57;57.10
967;BME280;56108;48.730;9.304;2023-05-09T09:27:55;97507.81;;;24.08;55.11
967;BME280;56108;48.730;9.304;2023-05-09T09:30:11;97496.91;;;24.79;52.32
967;BME280;56108;48.730;9.304;2023-05-09T09:32:20;97504.72;;;23.39;53.76
967;BME280;56108;48.730;9.304;2023-05-09T09:34:28;97503.50;;;24.35;53.26
967;BME280;56108;48.730;9.304;2023-05-09T09:36:39;97502.47;;;22.98;53.66
967;BME280;56108;48.730;9.304;2023-05-09T09:38:47;97487.97;;;22.91;54.99
967;BME280;56108;48.730;9.304;2023-05-09T09:40:56;97486.63;;;24.46;51.87
967;BME280;56108;48.730;9.304;2023-05-09T09:43:05;97482.63;;;24.70;51.65
967;BME280;56108;48.730;9.304;2023-05-09T09:45:15;97481.34;;;22.94;52.57
967;BME280;56108;48.730;9.304;2023-05-09T09:47:30;97463.22;;;21.96;55.67
967;BME280;56108;48.730;9.304;2023-05-09T09:49:44;97466.44;;;23.55;55.62
967;BME280;56108;48.730;9.304;2023-05-09T09:51:56;97472.66;;;24.28;51.62
967;BME280;56108;48.730;9.304;2023-05-09T09:54:06;97491.47;;;25.48;47.18
967;BME280;56108;48.730;9.304;2023-05-09T09:56:14;97474.13;;;23.52;51.75
967;BME280;56108;48.730;9.304;2023-05-09T09:58:25;97469.03;;;23.12;52.37
967;BME280;56108;48.730;9.304;2023-05-09T10:00:33;97450.41;;;22.50;52.68
967;BME280;56108;48.730;9.304;2023-05-09T10:02:48;97442.25;;;22.65;53.75
967;BME280;56108;48.730;9.304;2023-05-09T10:05:05;97438.41;;;22.59;55.91
967;BME280;56108;48.730;9.304;2023-05-09T10:07:18;97426.84;;;22.51;54.57
967;BME280;56108;48.730;9.304;2023-05-09T10:09:28;97434.06;;;21.98;55.37
967;BME280;56108;48.730;9.304;2023-05-09T10:11:36;97414.63;;;21.17;59.38
967;BME280;56108;48.730;9.304;2023-05-09T10:13:45;97404.84;;;21.70;60.52
967;BME280;56108;48.730;9.304;2023-05-09T10:15:53;97404.13;;;20.91;62.34
967;BME280;56108;48.730;9.304;2023-05-09T10:18:02;97402.00;;;21.09;58.85
967;BME280;56108;48.730;9.304;2023-05-09T10:20:12;97405.72;;;21.85;59.97
967;BME280;56108;48.730;9.304;2023-05-09T10:22:23;97399.13;;;21.65;58.61
967;BME280;56108;48.730;9.304;2023-05-09T10:24:33;97407.47;;;22.54;56.36
967;BME280;56108;48.730;9.304;2023-05-09T10:26:45;97399.72;;;23.31;57.43
967;BME280;56108;48.730;9.304;2023-05-09T10:28:56;97400.91;;;22.48;55.68
967;BME280;56108;48.730;9.304;2023-05-09T10:31:13;97399.53;;;22.67;55.97
967;BME280;56108;48.730;9.304;2023-05-09T10:33:25;97398.78;;;23.39;54.88
967;BME280;56108;48.730;9.304;2023-05-09T10:35:36;97396.50;;;24.28;54.06
967;BME280;56108;48.730;9.304;2023-05-09T10:37:46;97391.38;;;23.69;55.09
967;BME280;56108;48.730;9.304;2023-05-09T10:39:55;97391.06;;;23.79;52.44
967;BME280;56108;48.730;9.304;2023-05-09T10:42:04;97395.34;;;25.07;49.90
967;BME280;56108;48.730;9.304;2023-05-09T10:44:12;97382.94;;;24.63;51.25
967;BME280;56108;48.730;9.304;2023-05-09T10:46:21;97387.16;;;25.07;50.28
967;BME280;56108;48.730;9.304;2023-05-09T10:48:31;97391.44;;;25.36;48.77
967;BME280;56108;48.730;9.304;2023-05-09T10:50:40;97388.88;;;25.21;49.52
967;BME280;56108;48.730;9.304;2023-05-09T10:53:06;97380.88;;;24.37;52.08
967;BME280;56108;48.730;9.304;2023-05-09T10:55:18;97377.81;;;24.88;50.83
967;BME280;56108;48.730;9.304;2023-05-09T10:57:27;97380.38;;;23.56;50.69
967;BME280;56108;48.730;9.304;2023-05-09T10:59:36;97360.41;;;24.13;52.77
967;BME280;56108;48.730;9.304;2023-05-09T11:01:45;97354.88;;;23.35;55.96
967;BME280;56108;48.730;9.304;2023-05-09T11:03:54;97345.56;;;23.23;57.13
967;BME280;56108;48.730;9.304;2023-05-09T11:06:03;97340.28;;;24.70;56.32
967;BME280;56108;48.730;9.304;2023-05-09T11:08:21;97341.84;;;24.51;55.02
967;BME280;56108;48.730;9.304;2023-05-09T11:10:41;97331.94;;;24.85;54.37
967;BME280;56108;48.730;9.304;2023-05-09T11:12:52;97324.66;;;24.92;55.19
967;BME280;56108;48.730;9.304;2023-05-09T11:15:06;97330.06;;;25.40;51.69
967;BME280;56108;48.730;9.304;2023-05-09T11:17:27;97325.25;;;25.68;52.79
967;BME280;56108;48.730;9.304;2023-05-09T11:22:13;97321.19;;;23.73;53.01
967;BME280;56108;48.730;9.304;2023-05-09T11:24:27;97301.59;;;23.56;54.37
967;BME280;56108;48.730;9.304;2023-05-09T11:26:36;97311.72;;;23.04;53.89
967;BME280;56108;48.730;9.304;2023-05-09T11:28:51;97307.25;;;22.97;56.17
967;BME280;56108;48.730;9.304;2023-05-09T11:31:08;97294.16;;;23.64;56.22
967;BME280;56108;48.730;9.304;2023-05-09T11:33:23;97295.81;;;23.87;55.84
967;BME280;56108;48.730;9.304;2023-05-09T11:35:32;97289.47;;;23.58;55.50
967;BME280;56108;48.730;9.304;2023-05-09T11:37:44;97280.00;;;23.26;56.23
967;BME280;56108;48.730;9.304;2023-05-09T11:40:01;97274.94;;;23.66;57.13
967;BME280;56108;48.730;9.304;2023-05-09T11:42:09;97269.91;;;23.63;56.34
967;BME280;56108;48.730;9.304;2023-05-09T11:44:19;97271.97;;;23.61;54.26
967;BME280;56108;48.730;9.304;2023-05-09T11:46:27;97264.44;;;22.26;59.95
967;BME280;56108;48.730;9.304;2023-05-09T11:48:39;97243.09;;;22.23;64.16